sensor_id;sensor_type;location;lat;lon;timestamp;pressure;altitude;pressure_sealevel;temperature;humidity
59939;BME280;45801;51.810;19.444;2024-03-29T00:01:35;97458.63;;;11.10;54.49
59939;BME280;45801;51.810;19.444;2024-03-29T00:04:02;97460.27;;;11.01;55.31
59939;BME280;45801;51.810;19.444;2024-03-29T00:06:28;97462.69;;;10.99;55.20
59939;BME280;45801;51.810;19.444;2024-03-29T00:08:55;97461.63;;;10.98;55.45
59939;BME280;45801;51.810;19.444;2024-03-29T00:11:21;97465.84;;;10.99;55.47
59939;BME280;45801;51.810;19.444;2024-03-29T00:13:47;97467.73;;;10.97;55.40
59939;BME280;45801;51.810;19.444;2024-03-29T00:16:14;97468.02;;;10.92;55.52
59939;BME280;45801;51.810;19.444;2024-03-29T00:18:40;97475.02;;;10.91;55.55
59939;BME280;45801;51.810;19.444;2024-03-29T00:21:06;97485.02;;;10.93;55.49
59939;BME280;45801;51.810;19.444;2024-03-29T00:23:33;97488.11;;;10.89;55.68
59939;BME280;45801;51.810;19.444;2024-03-29T00:25:59;97490.18;;;10.87;55.67
59939;BME280;45801;51.810;19.444;2024-03-29T00:28:25;97499.49;;;10.76;55.99
59939;BME280;45801;51.810;19.444;2024-03-29T00:30:52;97500.65;;;10.71;55.97
59939;BME280;45801;51.810;19.444;2024-03-29T00:33:18;97505.48;;;10.68;55.92
59939;BME280;45801;51.810;19.444;2024-03-29T00:35:44;97507.89;;;10.64;55.92
59939;BME280;45801;51.810;19.444;2024-03-29T00:38:11;97514.59;;;10.56;55.84
59939;BME280;45801;51.810;19.444;2024-03-29T00:40:38;97511.59;;;10.54;56.03
59939;BME280;45801;51.810;19.444;2024-03-29T00:43:04;97523.48;;;10.53;56.00
59939;BME280;45801;51.810;19.444;2024-03-29T00:45:31;97517.71;;;10.54;55.98
59939;BME280;45801;51.810;19.444;2024-03-29T00:47:57;97522.06;;;10.52;55.73
59939;BME280;45801;51.810;19.444;2024-03-29T00:50:23;97534.89;;;10.54;55.63
59939;BME280;45801;51.810;19.444;2024-03-29T00:52:50;97540.69;;;10.56;55.69
59939;BME280;45801;51.810;19.444;2024-03-29T00:55:16;97542.94;;;10.54;55.25
59939;BME280;45801;51.810;19.444;2024-03-29T00:57:42;97548.50;;;10.52;55.21
59939;BME280;45801;51.810;19.444;2024-03-29T01:00:09;97557.60;;;10.41;55.41
59939;BME280;45801;51.810;19.444;2024-03-29T01:02:36;97563.21;;;10.42;55.42
59939;BME280;45801;51.810;19.444;2024-03-29T01:05:03;97568.79;;;10.40;55.32
59939;BME280;45801;51.810;19.444;2024-03-29T01:07:29;97575.05;;;10.38;55.13
59939;BME280;45801;51.810;19.444;2024-03-29T01:09:56;97582.23;;;10.39;54.93
59939;BME280;45801;51.810;19.444;2024-03-29T01:12:22;97589.48;;;10.42;54.67
59939;BME280;45801;51.810;19.444;2024-03-29T01:14:48;97591.91;;;10.42;54.29
59939;BME280;45801;51.810;19.444;2024-03-29T01:17:15;97597.48;;;10.40;54.11
59939;BME280;45801;51.810;19.444;2024-03-29T01:19:41;97601.50;;;10.31;54.06
59939;BME280;45801;51.810;19.444;2024-03-29T01:22:08;97612.35;;;10.22;54.16
59939;BME280;45801;51.810;19.444;2024-03-29T01:24:34;97617.66;;;10.16;54.24
59939;BME280;45801;51.810;19.444;2024-03-29T01:27:01;97625.98;;;10.12;54.06
59939;BME280;45801;51.810;19.444;2024-03-29T01:29:27;97635.80;;;10.13;54.10
59939;BME280;45801;51.810;19.444;2024-03-29T01:31:53;97645.11;;;10.07;54.05
59939;BME280;45801;51.810;19.444;2024-03-29T01:34:20;97651.16;;;10.02;54.39
59939;BME280;45801;51.810;19.444;2024-03-29T01:36:46;97655.64;;;10.00;54.57
59939;BME280;45801;51.810;19.444;2024-03-29T01:39:13;97657.84;;;9.96;54.64
59939;BME280;45801;51.810;19.444;2024-03-29T01:41:41;97664.09;;;9.93;55.10
59939;BME280;45801;51.810;19.444;2024-03-29T01:44:08;97673.98;;;9.89;55.53
59939;BME280;45801;51.810;19.444;2024-03-29T01:46:36;97683.33;;;9.93;55.41
59939;BME280;45801;51.810;19.444;2024-03-29T01:49:04;97695.07;;;9.94;55.48
59939;BME280;45801;51.810;19.444;2024-03-29T01:51:31;97695.05;;;9.85;55.98
59939;BME280;45801;51.810;19.444;2024-03-29T01:53:59;97700.96;;;9.84;56.29
59939;BME280;45801;51.810;19.444;2024-03-29T01:56:25;97712.02;;;9.86;56.21
59939;BME280;45801;51.810;19.444;2024-03-29T01:58:54;97720.34;;;9.82;56.40
59939;BME280;45801;51.810;19.444;2024-03-29T02:01:24;97725.21;;;9.81;56.59
59939;BME280;45801;51.810;19.444;2024-03-29T02:03:52;97733.98;;;9.74;56.65
59939;BME280;45801;51.810;19.444;2024-03-29T02:06:19;97742.17;;;9.73;56.63
59939;BME280;45801;51.810;19.444;2024-03-29T02:08:48;97749.72;;;9.75;56.58
59939;BME280;45801;51.810;19.444;2024-03-29T02:11:16;97754.98;;;9.76;56.57
59939;BME280;45801;51.810;19.444;2024-03-29T02:13:43;97752.88;;;9.75;56.73
59939;BME280;45801;51.810;19.444;2024-03-29T02:16:10;97753.99;;;9.70;57.13
59939;BME280;45801;51.810;19.444;2024-03-29T02:18:36;97757.70;;;9.64;57.15
59939;BME280;45801;51.810;19.444;2024-03-29T02:21:03;97763.10;;;9.56;57.53
59939;BME280;45801;51.810;19.444;2024-03-29T02:23:32;97767.48;;;9.56;57.32
59939;BME280;45801;51.810;19.444;2024-03-29T02:25:59;97774.15;;;9.43;57.98
59939;BME280;45801;51.810;19.444;2024-03-29T02:28:26;97780.77;;;9.28;58.28
59939;BME280;45801;51.810;19.444;2024-03-29T02:30:52;97786.04;;;9.29;58.34
59939;BME280;45801;51.810;19.444;2024-03-29T02:33:22;97787.89;;;9.25;58.29
59939;BME280;45801;51.810;19.444;2024-03-29T02:35:48;97796.34;;;9.22;58.50
59939;BME280;45801;51.810;19.444;2024-03-29T02:38:15;97801.66;;;9.18;58.51
59939;BME280;45801;51.810;19.444;2024-03-29T02:40:41;97803.61;;;9.19;58.46
59939;BME280;45801;51.810;19.444;2024-03-29T02:43:07;97803.20;;;9.17;58.55
59939;BME280;45801;51.810;19.444;2024-03-29T02:45:34;97805.67;;;9.04;58.94
59939;BME280;45801;51.810;19.444;2024-03-29T02:48:01;97810.86;;;9.02;58.85
59939;BME280;45801;51.810;19.444;2024-03-29T02:50:27;97810.74;;;9.05;58.68
59939;BME280;45801;51.810;19.444;2024-03-29T02:52:53;97816.73;;;9.00;58.96
59939;BME280;45801;51.810;19.444;2024-03-29T02:55:20;97819.65;;;9.05;58.52
59939;BME280;45801;51.810;19.444;2024-03-29T02:57:46;97822.46;;;9.05;58.67
59939;BME280;45801;51.810;19.444;2024-03-29T03:00:13;97822.69;;;9.00;58.64
59939;BME280;45801;51.810;19.444;2024-03-29T03:02:40;97822.01;;;8.94;58.90
59939;BME280;45801;51.810;19.444;2024-03-29T03:05:07;97824.11;;;8.94;58.75
59939;BME280;45801;51.810;19.444;2024-03-29T03:07:34;97812.83;;;8.97;58.58
59939;BME280;45801;51.810;19.444;2024-03-29T03:10:20;97815.55;;;8.94;58.65
59939;BME280;45801;51.810;19.444;2024-03-29T03:13:05;97818.94;;;8.90;58.82
59939;BME280;45801;51.810;19.444;2024-03-29T03:15:31;97822.30;;;8.86;58.80
59939;BME280;45801;51.810;19.444;2024-03-29T03:17:58;97819.02;;;8.81;58.99
59939;BME280;45801;51.810;19.444;2024-03-29T03:20:25;97822.05;;;8.83;58.87
59939;BME280;45801;51.810;19.444;2024-03-29T03:22:56;97825.73;;;8.83;58.90
59939;BME280;45801;51.810;19.444;2024-03-29T03:25:27;97828.52;;;8.83;58.93
59939;BME280;45801;51.810;19.444;2024-03-29T03:27:54;97839.12;;;8.82;58.90
59939;BME280;45801;51.810;19.444;2024-03-29T03:30:21;97840.80;;;8.79;58.81
59939;BME280;45801;51.810;19.444;2024-03-29T03:32:48;97844.70;;;8.81;58.77
59939;BME280;45801;51.810;19.444;2024-03-29T03:35:14;97851.47;;;8.79;58.75
59939;BME280;45801;51.810;19.444;2024-03-29T03:37:41;97858.56;;;8.84;58.57
59939;BME280;45801;51.810;19.444;2024-03-29T03:40:07;97863.39;;;8.88;58.54
59939;BME280;45801;51.810;19.444;2024-03-29T03:42:34;97873.02;;;8.95;58.31
59939;BME280;45801;51.810;19.444;2024-03-29T03:45:00;97871.42;;;9.01;58.31
59939;BME280;45801;51.810;19.444;2024-03-29T03:47:27;97873.26;;;8.98;58.25
59939;BME280;45801;51.810;19.444;2024-03-29T03:49:53;97876.16;;;8.96;58.23
59939;BME280;45801;51.810;19.444;2024-03-29T03:52:19;97875.23;;;8.99;58.33
59939;BME280;45801;51.810;19.444;2024-03-29T03:54:46;97882.48;;;8.96;58.40
59939;BME280;45801;51.810;19.444;2024-03-29T03:57:12;97881.21;;;8.89;58.79
59939;BME280;45801;51.810;19.444;2024-03-29T03:59:39;97888.05;;;8.89;58.80
59939;BME280;45801;51.810;19.444;2024-03-29T04:02:05;97892.16;;;8.87;58.97
59939;BME280;45801;51.810;19.444;2024-03-29T04:04:31;97893.46;;;8.83;59.09
59939;BME280;45801;51.810;19.444;2024-03-29T04:06:58;97894.86;;;8.83;59.22
59939;BME280;45801;51.810;19.444;2024-03-29T04:09:24;97897.42;;;8.81;59.28
59939;BME280;45801;51.810;19.444;2024-03-29T04:11:50;97907.24;;;8.83;59.06
59939;BME280;45801;51.810;19.444;2024-03-29T04:14:17;97904.09;;;8.82;59.61
59939;BME280;45801;51.810;19.444;2024-03-29T04:16:43;97899.79;;;8.85;59.45
59939;BME280;45801;51.810;19.444;2024-03-29T04:19:10;97902.98;;;8.87;59.44
59939;BME280;45801;51.810;19.444;2024-03-29T04:21:36;97908.77;;;8.82;59.72
59939;BME280;45801;51.810;19.444;2024-03-29T04:24:02;97904.65;;;8.77;59.83
59939;BME280;45801;51.810;19.444;2024-03-29T04:26:29;97902.20;;;8.77;59.94
59939;BME280;45801;51.810;19.444;2024-03-29T04:28:55;97902.97;;;8.80;59.96
59939;BME280;45801;51.810;19.444;2024-03-29T04:31:22;97905.11;;;8.81;59.98
59939;BME280;45801;51.810;19.444;2024-03-29T04:33:48;97908.09;;;8.82;60.23
59939;BME280;45801;51.810;19.444;2024-03-29T04:36:15;97907.67;;;8.80;60.51
59939;BME280;45801;51.810;19.444;2024-03-29T04:38:41;97902.49;;;8.75;60.60
59939;BME280;45801;51.810;19.444;2024-03-29T04:41:08;97901.66;;;8.71;60.40
59939;BME280;45801;51.810;19.444;2024-03-29T04:43:34;97904.61;;;8.71;60.57
59939;BME280;45801;51.810;19.444;2024-03-29T04:46:08;97913.44;;;8.68;60.78
59939;BME280;45801;51.810;19.444;2024-03-29T04:48:36;97918.18;;;8.69;60.51
59939;BME280;45801;51.810;19.444;2024-03-29T04:51:04;97916.52;;;8.72;60.72
59939;BME280;45801;51.810;19.444;2024-03-29T04:53:30;97918.71;;;8.75;60.71
59939;BME280;45801;51.810;19.444;2024-03-29T04:55:57;97917.17;;;8.76;60.30
59939;BME280;45801;51.810;19.444;2024-03-29T04:58:26;97916.52;;;8.78;60.45
59939;BME280;45801;51.810;19.444;2024-03-29T05:00:53;97921.11;;;8.74;60.79
59939;BME280;45801;51.810;19.444;2024-03-29T05:03:20;97925.48;;;8.74;60.70
59939;BME280;45801;51.810;19.444;2024-03-29T05:05:49;97928.77;;;8.73;60.89
59939;BME280;45801;51.810;19.444;2024-03-29T05:08:16;97932.59;;;8.72;60.96
59939;BME280;45801;51.810;19.444;2024-03-29T05:10:44;97932.77;;;8.72;60.69
59939;BME280;45801;51.810;19.444;2024-03-29T05:13:10;97934.29;;;8.76;60.79
59939;BME280;45801;51.810;19.444;2024-03-29T05:15:37;97935.19;;;8.77;60.80
59939;BME280;45801;51.810;19.444;2024-03-29T05:18:04;97934.87;;;8.78;60.98
59939;BME280;45801;51.810;19.444;2024-03-29T05:20:31;97939.38;;;8.77;60.94
59939;BME280;45801;51.810;19.444;2024-03-29T05:22:58;97941.80;;;8.77;61.03
59939;BME280;45801;51.810;19.444;2024-03-29T05:25:25;97943.52;;;8.69;61.33
59939;BME280;45801;51.810;19.444;2024-03-29T05:27:52;97944.03;;;8.70;61.18
59939;BME280;45801;51.810;19.444;2024-03-29T05:30:19;97945.57;;;8.74;61.02
59939;BME280;45801;51.810;19.444;2024-03-29T05:32:45;97946.40;;;8.79;61.10
59939;BME280;45801;51.810;19.444;2024-03-29T05:35:12;97948.13;;;8.84;61.10
59939;BME280;45801;51.810;19.444;2024-03-29T05:37:40;97954.34;;;8.87;61.27
59939;BME280;45801;51.810;19.444;2024-03-29T05:40:08;97959.71;;;8.92;60.96
59939;BME280;45801;51.810;19.444;2024-03-29T05:42:34;97966.92;;;8.94;61.10
59939;BME280;45801;51.810;19.444;2024-03-29T05:45:04;97977.27;;;8.95;61.26
59939;BME280;45801;51.810;19.444;2024-03-29T05:47:32;97984.59;;;8.94;61.41
59939;BME280;45801;51.810;19.444;2024-03-29T05:49:58;97986.09;;;8.92;61.16
59939;BME280;45801;51.810;19.444;2024-03-29T05:52:24;97992.79;;;8.77;61.83
59939;BME280;45801;51.810;19.444;2024-03-29T05:54:51;97994.74;;;8.72;61.86
59939;BME280;45801;51.810;19.444;2024-03-29T05:57:17;97997.55;;;8.72;61.69
59939;BME280;45801;51.810;19.444;2024-03-29T05:59:43;98000.90;;;8.79;61.82
59939;BME280;45801;51.810;19.444;2024-03-29T06:02:10;98011.16;;;8.78;62.26
59939;BME280;45801;51.810;19.444;2024-03-29T06:04:36;98017.85;;;8.80;62.00
59939;BME280;45801;51.810;19.444;2024-03-29T06:07:04;98017.38;;;8.82;62.17
59939;BME280;45801;51.810;19.444;2024-03-29T06:09:31;98021.87;;;8.80;62.53
59939;BME280;45801;51.810;19.444;2024-03-29T06:11:59;98017.33;;;8.86;61.99
59939;BME280;45801;51.810;19.444;2024-03-29T06:14:26;98009.85;;;8.92;61.88
59939;BME280;45801;51.810;19.444;2024-03-29T06:17:11;98013.39;;;8.94;61.93
59939;BME280;45801;51.810;19.444;2024-03-29T06:19:54;98010.02;;;9.05;61.75
59939;BME280;45801;51.810;19.444;2024-03-29T06:22:26;98008.78;;;9.15;61.53
59939;BME280;45801;51.810;19.444;2024-03-29T06:24:57;98010.06;;;9.24;60.78
59939;BME280;45801;51.810;19.444;2024-03-29T06:27:25;98007.55;;;9.27;60.62
59939;BME280;45801;51.810;19.444;2024-03-29T06:29:51;98007.75;;;9.28;59.97
59939;BME280;45801;51.810;19.444;2024-03-29T06:32:18;98004.70;;;9.19;60.05
59939;BME280;45801;51.810;19.444;2024-03-29T06:34:44;98010.80;;;9.19;60.23
59939;BME280;45801;51.810;19.444;2024-03-29T06:37:11;98014.15;;;9.20;60.28
59939;BME280;45801;51.810;19.444;2024-03-29T06:39:38;98012.98;;;9.22;60.13
59939;BME280;45801;51.810;19.444;2024-03-29T06:42:04;98017.41;;;9.18;60.14
59939;BME280;45801;51.810;19.444;2024-03-29T06:44:35;98018.26;;;9.17;60.34
59939;BME280;45801;51.810;19.444;2024-03-29T06:47:03;98014.63;;;9.25;60.12
59939;BME280;45801;51.810;19.444;2024-03-29T06:49:29;98018.58;;;9.34;60.09
59939;BME280;45801;51.810;19.444;2024-03-29T06:51:56;98020.21;;;9.43;59.70
59939;BME280;45801;51.810;19.444;2024-03-29T06:54:25;98017.59;;;9.48;59.31
59939;BME280;45801;51.810;19.444;2024-03-29T06:56:53;98013.77;;;9.56;59.32
59939;BME280;45801;51.810;19.444;2024-03-29T06:59:20;98012.55;;;9.63;59.15
59939;BME280;45801;51.810;19.444;2024-03-29T07:01:46;98020.64;;;9.70;59.13
59939;BME280;45801;51.810;19.444;2024-03-29T07:04:20;98022.74;;;9.78;58.89
59939;BME280;45801;51.810;19.444;2024-03-29T07:06:46;98028.31;;;9.83;58.80
59939;BME280;45801;51.810;19.444;2024-03-29T07:09:19;98031.61;;;9.88;58.66
59939;BME280;45801;51.810;19.444;2024-03-29T07:11:47;98028.69;;;9.97;58.48
59939;BME280;45801;51.810;19.444;2024-03-29T07:14:14;98030.45;;;9.97;58.06
59939;BME280;45801;51.810;19.444;2024-03-29T07:16:41;98032.48;;;10.02;57.91
59939;BME280;45801;51.810;19.444;2024-03-29T07:19:08;98037.64;;;10.12;58.06
59939;BME280;45801;51.810;19.444;2024-03-29T07:21:35;98038.63;;;10.16;57.72
59939;BME280;45801;51.810;19.444;2024-03-29T07:24:01;98031.83;;;10.24;57.45
59939;BME280;45801;51.810;19.444;2024-03-29T07:26:27;98027.57;;;10.29;56.91
59939;BME280;45801;51.810;19.444;2024-03-29T07:28:54;98025.27;;;10.28;56.66
59939;BME280;45801;51.810;19.444;2024-03-29T07:31:20;98031.77;;;10.35;56.81
59939;BME280;45801;51.810;19.444;2024-03-29T07:33:47;98034.77;;;10.43;56.73
59939;BME280;45801;51.810;19.444;2024-03-29T07:36:13;98030.69;;;10.48;56.19
59939;BME280;45801;51.810;19.444;2024-03-29T07:38:40;98028.64;;;10.57;56.27
59939;BME280;45801;51.810;19.444;2024-03-29T07:41:07;98018.05;;;10.61;55.46
59939;BME280;45801;51.810;19.444;2024-03-29T07:43:39;98013.73;;;10.71;55.52
59939;BME280;45801;51.810;19.444;2024-03-29T07:46:07;98024.20;;;10.77;54.78
59939;BME280;45801;51.810;19.444;2024-03-29T07:48:35;98026.98;;;10.84;55.05
59939;BME280;45801;51.810;19.444;2024-03-29T07:51:02;98029.49;;;10.94;55.47
59939;BME280;45801;51.810;19.444;2024-03-29T07:53:29;98034.70;;;11.01;54.84
59939;BME280;45801;51.810;19.444;2024-03-29T07:55:55;98040.16;;;11.09;54.18
59939;BME280;45801;51.810;19.444;2024-03-29T07:58:21;98043.88;;;11.10;53.73
59939;BME280;45801;51.810;19.444;2024-03-29T08:00:48;98048.40;;;11.18;54.19
59939;BME280;45801;51.810;19.444;2024-03-29T08:03:14;98049.14;;;11.27;54.60
59939;BME280;45801;51.810;19.444;2024-03-29T08:05:40;98049.79;;;11.33;54.02
59939;BME280;45801;51.810;19.444;2024-03-29T08:08:07;98051.33;;;11.40;53.72
59939;BME280;45801;51.810;19.444;2024-03-29T08:10:33;98059.30;;;11.44;53.15
59939;BME280;45801;51.810;19.444;2024-03-29T08:13:00;98061.67;;;11.47;52.78
59939;BME280;45801;51.810;19.444;2024-03-29T08:15:27;98070.52;;;11.52;53.00
59939;BME280;45801;51.810;19.444;2024-03-29T08:17:53;98081.73;;;11.59;53.74
59939;BME280;45801;51.810;19.444;2024-03-29T08:20:20;98087.42;;;11.73;52.61
59939;BME280;45801;51.810;19.444;2024-03-29T08:22:46;98081.08;;;11.79;52.92
59939;BME280;45801;51.810;19.444;2024-03-29T08:25:12;98087.52;;;11.86;52.78
59939;BME280;45801;51.810;19.444;2024-03-29T08:27:39;98085.79;;;11.87;51.43
59939;BME280;45801;51.810;19.444;2024-03-29T08:30:06;98081.91;;;11.86;51.59
59939;BME280;45801;51.810;19.444;2024-03-29T08:32:32;98075.23;;;11.93;51.83
59939;BME280;45801;51.810;19.444;2024-03-29T08:34:58;98077.40;;;11.95;50.47
59939;BME280;45801;51.810;19.444;2024-03-29T08:37:25;98076.83;;;12.02;50.66
59939;BME280;45801;51.810;19.444;2024-03-29T08:39:51;98072.89;;;12.08;50.16
59939;BME280;45801;51.810;19.444;2024-03-29T08:42:17;98066.80;;;12.11;49.49
59939;BME280;45801;51.810;19.444;2024-03-29T08:44:44;98070.58;;;12.16;48.67
59939;BME280;45801;51.810;19.444;2024-03-29T08:47:10;98081.06;;;12.14;48.22
59939;BME280;45801;51.810;19.444;2024-03-29T08:49:37;98080.21;;;12.15;48.82
59939;BME280;45801;51.810;19.444;2024-03-29T08:52:03;98088.59;;;12.13;48.82
59939;BME280;45801;51.810;19.444;2024-03-29T08:54:31;98088.91;;;12.20;49.04
59939;BME280;45801;51.810;19.444;2024-03-29T08:56:58;98088.82;;;12.26;49.09
59939;BME280;45801;51.810;19.444;2024-03-29T08:59:25;98087.39;;;12.33;49.27
59939;BME280;45801;51.810;19.444;2024-03-29T09:01:52;98084.80;;;12.47;49.04
59939;BME280;45801;51.810;19.444;2024-03-29T09:04:19;98087.78;;;12.55;48.10
59939;BME280;45801;51.810;19.444;2024-03-29T09:06:47;98090.50;;;12.61;47.86
59939;BME280;45801;51.810;19.444;2024-03-29T09:09:13;98091.91;;;12.72;48.67
59939;BME280;45801;51.810;19.444;2024-03-29T09:11:40;98087.10;;;12.79;48.09
59939;BME280;45801;51.810;19.444;2024-03-29T09:14:06;98084.20;;;12.84;48.17
59939;BME280;45801;51.810;19.444;2024-03-29T09:16:35;98083.40;;;12.89;47.46
59939;BME280;45801;51.810;19.444;2024-03-29T09:19:02;98082.06;;;12.93;47.60
59939;BME280;45801;51.810;19.444;2024-03-29T09:21:28;98079.86;;;12.99;47.05
59939;BME280;45801;51.810;19.444;2024-03-29T09:23:55;98079.68;;;12.99;46.26
59939;BME280;45801;51.810;19.444;2024-03-29T09:26:22;98091.01;;;13.05;46.84
59939;BME280;45801;51.810;19.444;2024-03-29T09:28:49;98096.05;;;13.11;46.01
59939;BME280;45801;51.810;19.444;2024-03-29T09:31:15;98102.91;;;13.12;44.91
59939;BME280;45801;51.810;19.444;2024-03-29T09:33:41;98103.31;;;13.16;45.44
59939;BME280;45801;51.810;19.444;2024-03-29T09:36:08;98102.84;;;13.19;45.09
59939;BME280;45801;51.810;19.444;2024-03-29T09:38:37;98102.42;;;13.27;45.94
59939;BME280;45801;51.810;19.444;2024-03-29T09:41:10;98101.54;;;13.37;46.21
59939;BME280;45801;51.810;19.444;2024-03-29T09:43:41;98102.20;;;13.46;45.79
59939;BME280;45801;51.810;19.444;2024-03-29T09:46:08;98103.75;;;13.58;46.61
59939;BME280;45801;51.810;19.444;2024-03-29T09:48:37;98099.16;;;13.69;46.24
59939;BME280;45801;51.810;19.444;2024-03-29T09:51:05;98089.92;;;13.77;45.16
59939;BME280;45801;51.810;19.444;2024-03-29T09:53:37;98085.88;;;13.77;44.69
59939;BME280;45801;51.810;19.444;2024-03-29T09:56:04;98086.09;;;13.80;44.48
59939;BME280;45801;51.810;19.444;2024-03-29T09:58:32;98090.34;;;13.82;44.21
59939;BME280;45801;51.810;19.444;2024-03-29T10:01:03;98099.31;;;13.82;44.83
59939;BME280;45801;51.810;19.444;2024-03-29T10:03:39;98103.55;;;13.98;46.03
59939;BME280;45801;51.810;19.444;2024-03-29T10:06:06;98111.46;;;14.13;45.23
59939;BME280;45801;51.810;19.444;2024-03-29T10:08:38;98110.65;;;14.20;43.61
59939;BME280;45801;51.810;19.444;2024-03-29T10:11:04;98110.58;;;14.29;44.04
59939;BME280;45801;51.810;19.444;2024-03-29T10:13:31;98109.26;;;14.38;43.87
59939;BME280;45801;51.810;19.444;2024-03-29T10:15:57;98102.84;;;14.49;44.12
59939;BME280;45801;51.810;19.444;2024-03-29T10:18:28;98105.13;;;14.66;44.14
59939;BME280;45801;51.810;19.444;2024-03-29T10:21:03;98107.52;;;14.75;42.69
59939;BME280;45801;51.810;19.444;2024-03-29T10:23:31;98102.30;;;14.82;42.04
59939;BME280;45801;51.810;19.444;2024-03-29T10:25:58;98108.54;;;14.91;41.57
59939;BME280;45801;51.810;19.444;2024-03-29T10:28:30;98109.98;;;14.94;41.61
59939;BME280;45801;51.810;19.444;2024-03-29T10:30:58;98118.29;;;14.97;41.34
59939;BME280;45801;51.810;19.444;2024-03-29T10:33:29;98111.78;;;15.00;41.60
59939;BME280;45801;51.810;19.444;2024-03-29T10:35:57;98105.08;;;14.99;40.66
59939;BME280;45801;51.810;19.444;2024-03-29T10:38:25;98098.89;;;14.98;40.40
59939;BME280;45801;51.810;19.444;2024-03-29T10:40:53;98085.91;;;15.07;41.07
59939;BME280;45801;51.810;19.444;2024-03-29T10:43:20;98082.45;;;15.17;40.03
59939;BME280;45801;51.810;19.444;2024-03-29T10:45:47;98083.53;;;15.22;39.94
59939;BME280;45801;51.810;19.444;2024-03-29T10:48:15;98088.31;;;15.25;39.12
59939;BME280;45801;51.810;19.444;2024-03-29T10:50:43;98090.28;;;15.29;39.78
59939;BME280;45801;51.810;19.444;2024-03-29T10:53:10;98083.27;;;15.36;39.09
59939;BME280;45801;51.810;19.444;2024-03-29T10:55:40;98087.04;;;15.47;38.58
59939;BME280;45801;51.810;19.444;2024-03-29T10:58:10;98083.94;;;15.61;38.38
59939;BME280;45801;51.810;19.444;2024-03-29T11:00:39;98072.33;;;15.70;38.39
59939;BME280;45801;51.810;19.444;2024-03-29T11:05:46;98061.08;;;15.80;37.05
59939;BME280;45801;51.810;19.444;2024-03-29T11:08:19;98063.94;;;15.88;36.39
59939;BME280;45801;51.810;19.444;2024-03-29T11:10:49;98062.19;;;15.94;35.15
59939;BME280;45801;51.810;19.444;2024-03-29T11:13:47;98060.28;;;16.04;35.26
59939;BME280;45801;51.810;19.444;2024-03-29T11:16:15;98058.38;;;16.20;36.17
59939;BME280;45801;51.810;19.444;2024-03-29T11:18:43;98053.09;;;16.32;35.62
59939;BME280;45801;51.810;19.444;2024-03-29T11:21:10;98053.11;;;16.47;36.01
59939;BME280;45801;51.810;19.444;2024-03-29T11:23:39;98057.54;;;16.59;35.55
59939;BME280;45801;51.810;19.444;2024-03-29T11:26:05;98063.55;;;16.71;35.74
59939;BME280;45801;51.810;19.444;2024-03-29T11:28:33;98059.50;;;16.67;34.69
59939;BME280;45801;51.810;19.444;2024-03-29T11:31:08;98054.90;;;16.64;34.68
59939;BME280;45801;51.810;19.444;2024-03-29T11:33:43;98048.00;;;16.67;36.25
59939;BME280;45801;51.810;19.444;2024-03-29T11:38:40;98044.65;;;16.92;36.90
59939;BME280;45801;51.810;19.444;2024-03-29T11:41:11;98037.20;;;17.11;36.88
59939;BME280;45801;51.810;19.444;2024-03-29T11:43:38;98035.40;;;17.23;35.56
59939;BME280;45801;51.810;19.444;2024-03-29T11:46:07;98031.30;;;17.29;35.49
59939;BME280;45801;51.810;19.444;2024-03-29T11:48:35;98035.35;;;17.39;34.81
59939;BME280;45801;51.810;19.444;2024-03-29T11:51:07;98032.15;;;17.42;33.71
59939;BME280;45801;51.810;19.444;2024-03-29T11:53:34;98026.29;;;17.48;33.43
59939;BME280;45801;51.810;19.444;2024-03-29T11:56:02;98024.18;;;17.43;32.65
59939;BME280;45801;51.810;19.444;2024-03-29T11:58:31;98030.20;;;17.41;33.54
59939;BME280;45801;51.810;19.444;2024-03-29T12:00:59;98028.77;;;17.47;33.92
59939;BME280;45801;51.810;19.444;2024-03-29T12:03:28;98023.08;;;17.54;34.20
59939;BME280;45801;51.810;19.444;2024-03-29T12:05:57;98032.10;;;17.55;33.23
59939;BME280;45801;51.810;19.444;2024-03-29T12:08:33;98042.92;;;17.51;32.93
59939;BME280;45801;51.810;19.444;2024-03-29T12:11:01;98040.14;;;17.36;32.33
59939;BME280;45801;51.810;19.444;2024-03-29T12:13:27;98044.36;;;17.41;32.67
59939;BME280;45801;51.810;19.444;2024-03-29T12:15:54;98051.95;;;17.49;31.77
59939;BME280;45801;51.810;19.444;2024-03-29T12:18:23;98059.53;;;17.60;31.60
59939;BME280;45801;51.810;19.444;2024-03-29T12:20:51;98061.98;;;17.69;31.43
59939;BME280;45801;51.810;19.444;2024-03-29T12:23:19;98063.39;;;17.73;30.87
59939;BME280;45801;51.810;19.444;2024-03-29T12:25:47;98067.27;;;17.74;31.93
59939;BME280;45801;51.810;19.444;2024-03-29T12:28:15;98075.02;;;17.81;31.94
59939;BME280;45801;51.810;19.444;2024-03-29T12:30:45;98063.34;;;17.83;32.38
59939;BME280;45801;51.810;19.444;2024-03-29T12:33:13;98059.42;;;17.86;32.17
59939;BME280;45801;51.810;19.444;2024-03-29T12:35:43;98064.35;;;18.00;33.33
59939;BME280;45801;51.810;19.444;2024-03-29T12:38:12;98065.90;;;18.09;32.68
59939;BME280;45801;51.810;19.444;2024-03-29T12:40:43;98061.98;;;18.12;32.58
59939;BME280;45801;51.810;19.444;2024-03-29T12:43:10;98059.54;;;18.05;31.65
59939;BME280;45801;51.810;19.444;2024-03-29T12:45:40;98058.00;;;17.93;31.96
59939;BME280;45801;51.810;19.444;2024-03-29T12:48:16;98069.38;;;17.78;32.16
59939;BME280;45801;51.810;19.444;2024-03-29T12:50:44;98068.54;;;17.70;32.57
59939;BME280;45801;51.810;19.444;2024-03-29T12:53:12;98080.08;;;17.54;32.24
59939;BME280;45801;51.810;19.444;2024-03-29T12:55:40;98082.39;;;17.51;32.21
59939;BME280;45801;51.810;19.444;2024-03-29T12:58:11;98075.86;;;17.44;32.06
59939;BME280;45801;51.810;19.444;2024-03-29T13:00:39;98074.45;;;17.44;32.86
59939;BME280;45801;51.810;19.444;2024-03-29T13:03:07;98082.42;;;17.48;32.87